West Palm Beach, FL

7:58 AM EDT on October 01, 2016 (GMT -0400)
PPI | | Change Station

Elev 13 ft 26.77 °N, 80.40 °W | Updated 317 days ago

Cloudy
Cloudy
86 °F
Feels Like 93 °F
N
5
Wind Variable Wind from East
Gusts mph

Today
High -- | Low -- °F
--% Chance of Precip.
Yesterday
High -- | Low -- °F
Precip. -- in
Pressure 30.05 in
Visibility 10.0 miles
Clouds Scattered Clouds 3300 ft
Mostly Cloudy 7000 ft
Mostly Cloudy 25000 ft
Heat Index 93 °F
Dew Point 74 °F
Humidity 67%
Rainfall in
Snow Depth Not available.
7:13 AM 7:06 PM
New Moon, 0% visible
METAR KPBI 011153Z 09006KT 10SM SCT033 BKN070 BKN250 24/21 A3005 RMK AO2 LTG DSNT NE AND E SLP176 CB DSNT NE-S 70077 T02440211 10261 20233 53016 $
Pressure 30.05 in
Visibility 10.0 miles
Clouds Scattered Clouds 3300 ft
Mostly Cloudy 7000 ft
Mostly Cloudy 25000 ft
Heat Index 93 °F
Dew Point 74 °F
Humidity 67%
Rainfall in
Snow Depth Not available.
7:13 AM 7:06 PM
New Moon, 0% visible
METAR KPBI 011153Z 09006KT 10SM SCT033 BKN070 BKN250 24/21 A3005 RMK AO2 LTG DSNT NE AND E SLP176 CB DSNT NE-S 70077 T02440211 10261 20233 53016 $

10-Day Weather Forecast

Almanac

Astronomy

Oct. 01, 2016 Rise Set
Actual Time
Civil Twilight
Nautical Twilight
Astronomical Twilight
Moon
Length of Visible Light
Length of Day
Tomorrow will be .
, % of the Moon is Illuminated

Today's Extremes

State Highs State Lows

Community

WunderPhotos

Upload Photos

1,942,905 photos uploaded!

WunderBlog® & News

Nearby

Air Quality

  Air Quality AQ Index Pollutant
Not available.

Snow Depth

Station Depth Elevation

Earthquake Activity

City Distance Mag. Time & Date
Minimum magnitude displayed is 2.5.

Coastal Water Temperatures

Place Temperature

Stations

Nearby Weather Stations

Station Location Temp. Windchill Dew Point Humidity Wind Precip. Elev Updated Type
                   

Watches & Warnings

There are currently no watches in effect.